Alverton, Pennsylvania
Current Conditions -  °F | °C
As of 7:45 AM on Tuesday 21 Oct 2014 (Local Time) from KLBE Reporting Station
Haze Haze  
Wind Chill: 52°   Ceiling: 1000
Heat Index: 52°   Visibility: 5mi
Dew Point: 52°   Wind: 7mph
Humidity: 100%   Direction: 230°SW
Pressure: 29.87"   Gusts: NA
Location:  40.14°N, 79.59°W
Report Text: KLBE 211145Z 23006KT 5SM BR OVC010 11/11 A2987 RMK 70005
Loading
Personal Weather Stations






























Interactive Weather Map
Tropical Storm Tracking
New forecast layout! Learn more

10-Day Weather Forecast

Advertisements
Track Severe Weather on mobile